createdAt,value
2022-08-22T00:00:45.063Z,6.72
2022-08-22T00:02:52.803Z,11.75
2022-08-22T00:02:59.074Z,8.25
2022-08-22T00:03:08.817Z,10.73
2022-08-22T00:03:12.286Z,10.90
2022-08-22T00:04:01.940Z,7.60
2022-08-22T00:07:13.268Z,6.93
2022-08-22T00:10:25.566Z,6.80
2022-08-22T00:13:35.141Z,7.07
2022-08-22T00:16:47.643Z,7.60
2022-08-22T00:20:02.500Z,7.18
2022-08-22T00:23:13.337Z,7.22
2022-08-22T00:26:26.109Z,7.22
2022-08-22T00:29:36.254Z,7.28
2022-08-22T00:32:46.403Z,7.82
2022-08-22T00:36:01.310Z,7.53
2022-08-22T00:39:13.700Z,7.63
2022-08-22T00:42:37.517Z,6.85
2022-08-22T00:46:01.749Z,7.45
2022-08-22T00:49:15.801Z,6.95
2022-08-22T00:52:56.245Z,7.38
2022-08-22T00:56:21.874Z,7.55
2022-08-22T00:59:53.411Z,7.57
2022-08-22T01:03:29.247Z,7.70
2022-08-22T01:06:46.288Z,7.00
2022-08-22T01:10:02.943Z,7.20
2022-08-22T01:13:22.955Z,7.55
2022-08-22T01:16:50.513Z,7.55
2022-08-22T01:20:25.729Z,7.05
2022-08-22T01:24:03.996Z,8.05
2022-08-22T01:27:57.760Z,8.35
2022-08-22T01:31:43.098Z,8.30
2022-08-22T01:35:26.876Z,8.15
2022-08-22T01:38:55.881Z,7.75
2022-08-22T01:42:32.629Z,8.05
2022-08-22T01:46:14.969Z,8.82
2022-08-22T01:49:29.641Z,8.70
2022-08-22T01:52:43.574Z,7.93
2022-08-22T01:55:58.313Z,8.13
2022-08-22T01:59:05.850Z,7.88
2022-08-22T02:02:29.756Z,8.07
2022-08-22T02:05:38.993Z,7.88
2022-08-22T02:09:00.311Z,8.38
2022-08-22T02:12:25.759Z,8.02
2022-08-22T02:15:45.230Z,7.90
2022-08-22T02:19:04.323Z,8.27
2022-08-22T02:22:22.912Z,7.97
2022-08-22T02:25:32.785Z,8.02
2022-08-22T02:28:56.511Z,8.20
2022-08-22T02:32:06.404Z,7.90
2022-08-22T02:35:23.384Z,8.05
2022-08-22T02:38:33.398Z,7.85
2022-08-22T02:41:49.852Z,8.52
2022-08-22T02:45:02.715Z,8.32
2022-08-22T02:48:21.668Z,8.90
2022-08-22T02:51:38.036Z,8.45
2022-08-22T02:54:53.423Z,9.40
2022-08-22T02:58:06.495Z,9.00
2022-08-22T03:01:24.249Z,9.52
2022-08-22T03:04:48.312Z,9.88
2022-08-22T03:08:14.825Z,8.90
2022-08-22T03:11:25.287Z,8.82
2022-08-22T03:14:35.716Z,8.60
2022-08-22T03:17:49.208Z,8.45
2022-08-22T03:20:59.032Z,8.93
2022-08-22T03:24:12.801Z,9.07
2022-08-22T03:27:32.819Z,9.00
2022-08-22T03:30:43.810Z,8.93
2022-08-22T03:34:07.560Z,8.75
2022-08-22T03:37:19.264Z,9.23
2022-08-22T03:40:31.952Z,9.20
2022-08-22T03:44:05.335Z,9.32
2022-08-22T03:47:32.190Z,8.63
2022-08-22T03:51:05.149Z,8.60
2022-08-22T03:54:49.860Z,8.95
2022-08-22T03:58:27.682Z,8.85
2022-08-22T04:01:56.546Z,9.10
2022-08-22T04:05:20.514Z,9.00
2022-08-22T04:08:53.489Z,8.63
2022-08-22T04:12:34.951Z,8.93
2022-08-22T04:15:56.514Z,9.50
2022-08-22T04:19:24.519Z,9.77
2022-08-22T04:22:49.745Z,8.60
2022-08-22T04:25:57.678Z,9.75
2022-08-22T04:29:10.053Z,9.98
2022-08-22T04:32:22.324Z,9.50
2022-08-22T04:35:32.382Z,10.10
2022-08-22T04:38:43.288Z,10.40
2022-08-22T04:41:51.687Z,9.93
2022-08-22T04:44:59.754Z,11.10
2022-08-22T04:48:09.270Z,10.25
2022-08-22T04:51:23.363Z,10.48
2022-08-22T04:54:48.590Z,10.38
2022-08-22T04:57:58.469Z,10.63
2022-08-22T05:01:13.569Z,10.20
2022-08-22T05:04:21.878Z,8.60
2022-08-22T05:07:32.379Z,9.93
2022-08-22T05:10:46.416Z,9.32
2022-08-22T05:13:56.299Z,8.27
2022-08-22T05:17:01.549Z,8.15
2022-08-22T05:20:11.321Z,8.55
2022-08-22T05:23:21.726Z,8.75
2022-08-22T05:26:28.670Z,7.93
2022-08-22T05:29:34.215Z,7.65
2022-08-22T05:32:47.668Z,8.50
2022-08-22T05:35:57.834Z,8.32
2022-08-22T05:39:06.191Z,7.93
2022-08-22T05:42:15.728Z,8.20
2022-08-22T05:45:20.431Z,7.68
2022-08-22T05:48:32.780Z,8.27
2022-08-22T05:51:42.097Z,7.68
2022-08-22T05:54:54.945Z,8.57
2022-08-22T05:58:15.058Z,8.15
2022-08-22T06:01:39.114Z,7.85
2022-08-22T06:04:50.225Z,8.20
2022-08-22T06:07:59.587Z,8.20
2022-08-22T06:11:09.125Z,8.45
2022-08-22T06:14:26.332Z,8.48
2022-08-22T06:17:36.065Z,9.00
2022-08-22T06:20:45.284Z,8.48
2022-08-22T06:23:54.295Z,8.25
2022-08-22T06:27:09.011Z,8.68
2022-08-22T06:30:17.060Z,8.25
2022-08-22T06:33:25.532Z,8.80
2022-08-22T06:36:32.580Z,8.45
2022-08-22T06:39:38.985Z,8.32
2022-08-22T06:42:45.800Z,8.43
2022-08-22T06:45:53.062Z,8.93
2022-08-22T06:48:57.591Z,8.90
2022-08-22T06:52:08.632Z,7.55
2022-08-22T06:55:12.407Z,8.07
2022-08-22T06:58:18.799Z,7.57
2022-08-22T07:01:26.454Z,8.00
2022-08-22T07:04:30.164Z,6.93
2022-08-22T07:07:33.532Z,6.90
2022-08-22T07:10:37.726Z,7.40
2022-08-22T07:13:46.227Z,6.90
2022-08-22T07:17:00.100Z,8.00
2022-08-22T07:20:17.382Z,7.18
2022-08-22T07:23:31.645Z,7.88
2022-08-22T07:26:49.062Z,7.65
2022-08-22T07:30:04.085Z,7.72
2022-08-22T07:33:27.007Z,7.53
2022-08-22T07:36:37.876Z,8.93
2022-08-22T07:39:51.591Z,8.07
2022-08-22T07:43:04.485Z,7.70
2022-08-22T07:46:20.838Z,7.90
2022-08-22T07:49:30.430Z,7.97
2022-08-22T07:52:40.435Z,7.72
2022-08-22T07:55:49.754Z,7.50
2022-08-22T07:58:57.028Z,7.47
2022-08-22T08:02:03.300Z,7.30
2022-08-22T08:05:09.048Z,7.88
2022-08-22T08:08:20.956Z,7.47
2022-08-22T08:11:28.170Z,7.93
2022-08-22T08:14:32.606Z,8.07
2022-08-22T08:17:38.468Z,8.27
2022-08-22T08:20:43.531Z,7.65
2022-08-22T08:23:47.818Z,8.27
2022-08-22T08:27:12.781Z,10.02
2022-08-22T08:30:18.913Z,11.07
2022-08-22T08:33:26.728Z,12.75
2022-08-22T08:36:45.913Z,11.45
2022-08-22T08:39:51.618Z,12.05
2022-08-22T08:43:28.261Z,12.77
2022-08-22T08:46:57.485Z,12.38
2022-08-22T08:50:29.165Z,11.70
2022-08-22T08:54:05.847Z,12.55
2022-08-22T08:57:20.285Z,12.07
2022-08-22T09:00:45.083Z,12.00
2022-08-22T09:04:15.200Z,12.77
2022-08-22T09:07:49.376Z,11.68
2022-08-22T09:11:10.186Z,12.15
2022-08-22T09:14:39.243Z,12.80
2022-08-22T09:18:20.105Z,12.07
2022-08-22T09:22:00.852Z,13.48
2022-08-22T09:25:23.675Z,15.27
2022-08-22T09:28:41.585Z,18.27
2022-08-22T09:31:59.690Z,18.48
2022-08-22T09:35:10.320Z,18.48
2022-08-22T09:38:40.866Z,19.02
2022-08-22T09:42:01.146Z,19.67
2022-08-22T09:45:38.673Z,19.17
2022-08-22T09:48:54.203Z,16.05
2022-08-22T09:52:15.218Z,17.58
2022-08-22T09:55:35.405Z,19.00
2022-08-22T09:58:44.999Z,19.05
2022-08-22T10:02:00.981Z,16.67
2022-08-22T10:05:40.658Z,17.75
2022-08-22T10:08:46.129Z,16.77
2022-08-22T10:11:55.588Z,17.95
2022-08-22T10:15:10.947Z,16.70
2022-08-22T10:18:29.567Z,16.52
2022-08-22T10:21:43.109Z,15.93
2022-08-22T10:24:58.536Z,17.00
2022-08-22T10:28:16.023Z,16.88
2022-08-22T10:31:29.534Z,18.83
2022-08-22T10:34:42.886Z,18.50
2022-08-22T10:37:55.309Z,18.10
2022-08-22T10:41:09.473Z,17.58
2022-08-22T10:44:20.662Z,17.45
2022-08-22T10:47:34.091Z,17.58
2022-08-22T10:50:43.595Z,17.08
2022-08-22T10:54:20.151Z,17.92
2022-08-22T10:58:01.949Z,18.05
2022-08-22T11:01:37.809Z,18.15
2022-08-22T11:04:53.229Z,18.73
2022-08-22T11:08:15.088Z,19.42
2022-08-22T11:11:32.536Z,17.52
2022-08-22T11:15:03.085Z,16.98
2022-08-22T11:18:30.578Z,15.07
2022-08-22T11:21:50.847Z,16.92
2022-08-22T11:25:35.719Z,15.23
2022-08-22T11:29:13.850Z,15.82
2022-08-22T11:32:25.912Z,15.32
2022-08-22T11:35:38.219Z,14.55
2022-08-22T11:39:01.182Z,15.65
2022-08-22T11:42:11.662Z,16.52
2022-08-22T11:45:22.407Z,14.68
2022-08-22T11:48:35.371Z,14.43
2022-08-22T11:52:00.652Z,15.10
2022-08-22T11:55:24.089Z,14.57
2022-08-22T11:58:41.283Z,20.73
2022-08-22T12:01:52.694Z,19.92
2022-08-22T12:05:00.000Z,18.40
2022-08-22T12:08:12.496Z,18.63
2022-08-22T12:11:23.587Z,16.50
2022-08-22T12:14:34.710Z,14.93
2022-08-22T12:18:09.604Z,14.95
2022-08-22T12:21:28.503Z,14.00
2022-08-22T12:24:47.784Z,14.55
2022-08-22T12:28:00.430Z,15.57
2022-08-22T12:31:14.805Z,14.55
2022-08-22T12:34:28.062Z,13.50
2022-08-22T12:38:26.672Z,14.20
2022-08-22T12:41:28.328Z,14.05
2022-08-22T12:44:52.963Z,15.82
2022-08-22T12:48:10.037Z,15.50
2022-08-22T12:51:33.060Z,16.58
2022-08-22T12:54:50.261Z,16.33
2022-08-22T12:58:03.724Z,10.82
2022-08-22T13:01:09.484Z,10.02
2022-08-22T13:04:32.555Z,9.70
2022-08-22T13:07:40.646Z,9.88
2022-08-22T13:10:48.791Z,9.70
2022-08-22T13:13:57.943Z,9.73
2022-08-22T13:17:15.179Z,9.15
2022-08-22T13:20:32.861Z,9.80
2022-08-22T13:23:43.139Z,9.27
2022-08-22T13:26:49.719Z,10.20
2022-08-22T13:29:58.746Z,9.77
2022-08-22T13:33:09.840Z,10.88
2022-08-22T13:36:18.277Z,10.25
2022-08-22T13:39:28.164Z,10.15
2022-08-22T13:42:34.984Z,9.70
2022-08-22T13:45:54.012Z,10.15
2022-08-22T13:49:01.350Z,9.63
2022-08-22T13:52:29.199Z,9.85
2022-08-22T13:55:43.265Z,10.52
2022-08-22T13:58:51.641Z,10.27
2022-08-22T14:02:00.504Z,11.07
2022-08-22T14:05:09.242Z,10.43
2022-08-22T14:08:23.281Z,10.38
2022-08-22T14:11:37.085Z,10.70
2022-08-22T14:14:42.508Z,10.93
2022-08-22T14:17:49.179Z,10.50
2022-08-22T14:20:53.332Z,11.35
2022-08-22T14:24:00.284Z,10.50
2022-08-22T14:27:09.252Z,9.73
2022-08-22T14:30:17.157Z,11.10
2022-08-22T14:33:25.461Z,10.25
2022-08-22T14:36:49.230Z,10.77
2022-08-22T14:40:00.962Z,10.18
2022-08-22T14:43:10.493Z,10.10
2022-08-22T14:46:19.927Z,10.27
2022-08-22T14:49:31.722Z,9.70
2022-08-22T14:52:40.598Z,9.52
2022-08-22T14:55:44.168Z,10.18
2022-08-22T14:58:52.716Z,10.98
2022-08-22T15:01:59.905Z,10.80
2022-08-22T15:05:18.077Z,10.70
2022-08-22T15:08:30.280Z,11.40
2022-08-22T15:11:34.543Z,11.32
2022-08-22T15:14:52.331Z,12.02
2022-08-22T15:17:57.044Z,12.50
2022-08-22T15:21:06.913Z,12.68
2022-08-22T15:24:15.570Z,13.00
2022-08-22T15:27:22.452Z,13.45
2022-08-22T15:30:44.221Z,13.32
2022-08-22T15:33:49.429Z,13.20
2022-08-22T15:37:10.991Z,12.85
2022-08-22T15:40:33.266Z,14.35
2022-08-22T15:43:46.104Z,12.93
2022-08-22T15:47:01.298Z,13.77
2022-08-22T15:50:09.517Z,14.25
2022-08-22T15:53:24.126Z,14.05
2022-08-22T15:56:29.851Z,14.48
2022-08-22T15:59:48.148Z,13.88
2022-08-22T16:03:04.323Z,14.65
2022-08-22T16:06:11.264Z,14.00
2022-08-22T16:09:34.059Z,14.80
2022-08-22T16:12:41.101Z,15.13
2022-08-22T16:16:10.026Z,14.23
2022-08-22T16:19:25.425Z,15.30
2022-08-22T16:23:07.552Z,16.08
2022-08-22T16:26:17.436Z,16.17
2022-08-22T16:29:41.237Z,16.45
2022-08-22T16:32:57.718Z,15.88
2022-08-22T16:36:40.361Z,14.88
2022-08-22T16:39:48.118Z,14.73
2022-08-22T16:43:10.994Z,15.50
2022-08-22T16:46:34.613Z,14.30
2022-08-22T16:49:54.744Z,13.93
2022-08-22T16:53:02.024Z,14.15
2022-08-22T16:56:28.348Z,14.95
2022-08-22T16:59:40.940Z,14.70
2022-08-22T17:02:58.784Z,14.73
2022-08-22T17:06:25.923Z,15.23
2022-08-22T17:09:46.446Z,13.27
2022-08-22T17:13:06.363Z,15.02
2022-08-22T17:16:25.131Z,13.50
2022-08-22T17:19:49.096Z,14.02
2022-08-22T17:22:58.233Z,13.48
2022-08-22T17:26:20.544Z,13.70
2022-08-22T17:29:39.395Z,14.02
2022-08-22T17:32:59.755Z,14.02
2022-08-22T17:36:26.348Z,13.13
2022-08-22T17:39:54.570Z,13.27
2022-08-22T17:43:27.547Z,14.77
2022-08-22T17:46:51.132Z,15.25
2022-08-22T17:50:01.168Z,15.00
2022-08-22T17:53:10.340Z,13.88
2022-08-22T17:56:21.316Z,14.50
2022-08-22T17:59:29.101Z,14.48
2022-08-22T18:02:39.447Z,14.70
2022-08-22T18:05:49.911Z,15.05
2022-08-22T18:09:13.656Z,14.18
2022-08-22T18:12:22.128Z,14.10
2022-08-22T18:15:31.553Z,15.55
2022-08-22T18:18:40.151Z,15.48
2022-08-22T18:21:49.685Z,15.82
2022-08-22T18:24:58.819Z,16.38
2022-08-22T18:28:06.516Z,18.90
2022-08-22T18:31:16.946Z,20.05
2022-08-22T18:34:31.529Z,21.17
2022-08-22T18:37:50.890Z,22.80
2022-08-22T18:41:09.973Z,22.13
2022-08-22T18:44:19.521Z,23.33
2022-08-22T18:47:25.936Z,23.13
2022-08-22T18:50:34.616Z,22.50
2022-08-22T18:53:42.143Z,23.92
2022-08-22T18:56:51.606Z,23.75
2022-08-22T19:00:08.793Z,24.27
2022-08-22T19:03:39.609Z,23.33
2022-08-22T19:07:04.834Z,23.20
2022-08-22T19:10:34.537Z,22.52
2022-08-22T19:13:54.322Z,21.25
2022-08-22T19:17:34.523Z,21.08
2022-08-22T19:20:57.365Z,21.70
2022-08-22T19:24:02.897Z,20.67
2022-08-22T19:27:31.009Z,19.85
2022-08-22T19:30:45.447Z,18.95
2022-08-22T19:33:50.284Z,18.00
2022-08-22T19:37:34.185Z,17.88
2022-08-22T19:40:55.886Z,17.67
2022-08-22T19:44:02.007Z,17.13
2022-08-22T19:47:24.352Z,17.30
2022-08-22T19:50:33.273Z,16.67
2022-08-22T19:53:47.606Z,17.08
2022-08-22T19:57:07.388Z,19.63
2022-08-22T20:00:18.782Z,18.73
2022-08-22T20:03:33.576Z,17.70
2022-08-22T20:06:44.687Z,18.45
2022-08-22T20:10:01.835Z,17.77
2022-08-22T20:13:11.995Z,18.83
2022-08-22T20:16:19.406Z,18.52
2022-08-22T20:19:22.915Z,19.08
2022-08-22T20:22:30.621Z,21.77
2022-08-22T20:25:44.192Z,20.17
2022-08-22T20:28:52.484Z,21.67
2022-08-22T20:31:58.793Z,21.48
2022-08-22T20:35:05.068Z,19.52
2022-08-22T20:38:11.407Z,20.25
2022-08-22T20:41:22.538Z,19.35
2022-08-22T20:44:33.569Z,18.92
2022-08-22T20:47:41.794Z,18.90
2022-08-22T20:50:46.179Z,18.92
2022-08-22T20:53:53.374Z,18.45
2022-08-22T20:57:00.128Z,18.65
2022-08-22T21:00:11.715Z,17.63
2022-08-22T21:03:25.959Z,18.10
2022-08-22T21:06:34.313Z,17.75
2022-08-22T21:09:55.198Z,18.30
2022-08-22T21:13:10.454Z,18.50
2022-08-22T21:16:18.865Z,17.63
2022-08-22T21:19:27.325Z,20.27
2022-08-22T21:22:34.655Z,20.05
2022-08-22T21:25:51.785Z,18.70
2022-08-22T21:29:00.238Z,20.90
2022-08-22T21:32:18.124Z,21.23
2022-08-22T21:35:29.529Z,20.38
2022-08-22T21:38:32.869Z,19.98
2022-08-22T21:41:41.405Z,18.45
2022-08-22T21:44:57.455Z,18.17
2022-08-22T21:48:02.852Z,19.33
2022-08-22T21:51:30.148Z,19.25
2022-08-22T21:54:42.598Z,19.38
2022-08-22T21:57:46.055Z,19.65
2022-08-22T22:00:52.055Z,20.17
2022-08-22T22:03:57.992Z,19.00
2022-08-22T22:07:01.412Z,18.92
2022-08-22T22:10:05.799Z,20.42
2022-08-22T22:13:09.672Z,20.60
2022-08-22T22:16:13.890Z,21.67
2022-08-22T22:19:18.655Z,21.83
2022-08-22T22:22:22.567Z,20.10
2022-08-22T22:25:39.685Z,19.27
2022-08-22T22:28:48.498Z,21.02
2022-08-22T22:31:52.367Z,19.50
2022-08-22T22:34:57.094Z,20.15
2022-08-22T22:38:00.506Z,19.63
2022-08-22T22:41:04.007Z,20.85
2022-08-22T22:44:07.299Z,20.02
2022-08-22T22:47:10.660Z,20.27
2022-08-22T22:50:15.416Z,20.42
2022-08-22T22:53:21.317Z,18.95
2022-08-22T22:56:31.733Z,19.05
2022-08-22T22:59:35.380Z,18.27
2022-08-22T23:02:38.688Z,20.38
2022-08-22T23:05:43.404Z,21.33
2022-08-22T23:08:47.400Z,20.90
2022-08-22T23:11:51.093Z,23.40
2022-08-22T23:14:54.400Z,21.70
2022-08-22T23:17:58.422Z,24.08
2022-08-22T23:21:13.025Z,24.55
2022-08-22T23:24:16.487Z,23.15
2022-08-22T23:27:19.844Z,23.58
2022-08-22T23:30:23.212Z,21.88
2022-08-22T23:33:26.595Z,20.92
2022-08-22T23:36:31.493Z,19.50
2022-08-22T23:39:36.281Z,19.67
2022-08-22T23:42:39.587Z,18.75
2022-08-22T23:45:42.879Z,18.67
2022-08-22T23:48:46.694Z,17.45
2022-08-22T23:51:52.055Z,17.23
2022-08-22T23:54:55.931Z,16.15
2022-08-22T23:57:59.405Z,15.75
